Time;durP1;ratioP1;P1;durP2;ratioP2;P2;SDS_P1;SDS_P2;PMS_P1;PMS_P2;Temp;Humidity;BMP_temperature;BMP_pressure;BME280_temperature;BME280_humidity;BME280_pressure;Samples;Min_cycle;Max_cycle;Signal;HPM_P1;HPM_P2
2021/12/25 00:01:41;;;;;;;;;;;;;;;17.29;48.01;100650.59;5042229;28;19917;-45
2021/12/25 00:04:07;;;;;;;;;;;;;;;17.28;48.02;100648.91;5042099;28;19917;-47
2021/12/25 00:06:32;;;;;;;;;;;;;;;17.27;47.93;100659.81;5043040;28;19913;-44
2021/12/25 00:08:58;;;;;;;;;;;;;;;17.26;47.89;100652.78;5042960;28;19944;-46
2021/12/25 00:11:23;;;;;;;;;;;;;;;17.26;47.89;100663.53;5042730;28;19924;-44
2021/12/25 00:13:48;;;;;;;;;;;;;;;17.24;47.87;100653.75;5042330;28;19917;-44
2021/12/25 00:16:13;;;;;;;;;;;;;;;17.23;48.07;100651.25;5042349;28;19925;-49
2021/12/25 00:18:38;;;;;;;;;;;;;;;17.22;48.01;100649.56;5041558;28;19920;-46
2021/12/25 00:21:04;;;;;;;;;;;;;;;17.22;48.11;100654.94;5042457;28;19988;-46
2021/12/25 00:23:29;;;;;;;;;;;;;;;17.20;48.00;100646.19;5037322;28;19967;-46
2021/12/25 00:26:00;;;;;;;;;;;;;;;17.19;47.90;100650.72;5042503;28;19913;-48
2021/12/25 00:36:00;;;;;;;;;;;;;;;17.15;47.90;100659.28;5046668;28;19913;-46
2021/12/25 00:38:25;;;;;;;;;;;;;;;17.14;47.88;100671.03;5046370;28;19913;-46
2021/12/25 00:40:50;;;;;;;;;;;;;;;17.11;47.91;100674.88;5046263;28;19913;-51
2021/12/25 00:43:15;;;;;;;;;;;;;;;17.10;47.93;100681.25;5061178;28;19996;-44
2021/12/25 00:45:40;;;;;;;;;;;;;;;17.10;47.89;100681.25;5046058;28;19913;-46
2021/12/25 00:48:05;;;;;;;;;;;;;;;17.08;48.00;100683.28;5045418;28;19963;-49
2021/12/25 00:50:31;;;;;;;;;;;;;;;17.06;48.03;100682.59;5045956;28;19913;-48
2021/12/25 00:52:56;;;;;;;;;;;;;;;17.05;47.98;100685.44;5046006;28;19920;-47
2021/12/25 00:55:21;;;;;;;;;;;;;;;17.04;47.95;100686.47;5045773;28;19913;-48
2021/12/25 00:57:46;;;;;;;;;;;;;;;17.03;47.96;100688.28;5045797;28;19919;-46
2021/12/25 01:00:12;;;;;;;;;;;;;;;17.02;47.92;100694.66;5044506;28;19963;-47
2021/12/25 01:02:38;;;;;;;;;;;;;;;17.02;47.99;100696.50;5025235;28;19917;-45
2021/12/25 01:05:04;;;;;;;;;;;;;;;17.01;47.96;100702.88;5026040;28;19927;-46
2021/12/25 01:07:29;;;;;;;;;;;;;;;16.99;48.00;100692.28;5026128;28;19968;-46
2021/12/25 01:09:54;;;;;;;;;;;;;;;16.97;48.04;100697.81;5025917;28;20604;-45
2021/12/25 01:12:20;;;;;;;;;;;;;;;16.96;47.94;100695.31;5025911;28;19914;-46
2021/12/25 01:14:51;;;;;;;;;;;;;;;16.95;48.08;100691.78;5025497;28;19929;-44
2021/12/25 01:20:34;;;;;;;;;;;;;;;16.93;48.05;100693.78;4984543;28;19914;-48
2021/12/25 01:23:39;;;;;;;;;;;;;;;16.92;47.98;100696.63;4996298;28;19929;-47
2021/12/25 01:34:19;;;;;;;;;;;;;;;16.88;47.96;100685.38;5008989;28;19913;-47
2021/12/25 01:39:13;;;;;;;;;;;;;;;16.88;47.95;100684.53;5003548;28;19925;-46
2021/12/25 01:49:32;;;;;;;;;;;;;;;16.85;47.98;100699.09;5002920;28;20004;-47
2021/12/25 01:51:58;;;;;;;;;;;;;;;16.85;47.98;100700.97;4987700;28;20024;-48
2021/12/25 01:54:23;;;;;;;;;;;;;;;16.84;47.95;100699.28;5000154;28;19924;-46
2021/12/25 01:56:48;;;;;;;;;;;;;;;16.84;47.83;100707.34;5024834;28;19913;-47
2021/12/25 01:59:14;;;;;;;;;;;;;;;16.84;47.88;100710.03;5025119;28;19923;-48
2021/12/25 02:01:39;;;;;;;;;;;;;;;16.82;47.86;100707.50;5024843;28;19914;-47
2021/12/25 02:04:04;;;;;;;;;;;;;;;16.81;47.91;100705.78;5024372;28;19929;-44
2021/12/25 02:06:29;;;;;;;;;;;;;;;16.80;47.83;100704.13;5024873;28;19924;-46
2021/12/25 02:08:54;;;;;;;;;;;;;;;16.80;47.94;100717.53;5024898;28;19914;-44
2021/12/25 02:11:20;;;;;;;;;;;;;;;16.80;47.96;100720.22;5024916;28;20410;-45
2021/12/25 02:13:46;;;;;;;;;;;;;;;16.79;47.76;100712.34;5024370;28;19989;-45
2021/12/25 02:16:17;;;;;;;;;;;;;;;16.78;47.81;100710.63;5024399;28;19921;-46
2021/12/25 02:18:57;;;;;;;;;;;;;;;16.76;47.80;100707.28;5043769;28;19913;-45
2021/12/25 02:21:27;;;;;;;;;;;;;;;16.76;47.89;100712.66;5044539;28;19948;-45
2021/12/25 02:23:52;;;;;;;;;;;;;;;16.73;47.82;100703.91;5024423;28;20477;-44
2021/12/25 02:26:18;;;;;;;;;;;;;;;16.72;47.77;100704.03;5024299;28;19921;-44
2021/12/25 02:28:43;;;;;;;;;;;;;;;16.72;47.85;100704.91;5024489;28;20341;-43
2021/12/25 02:31:09;;;;;;;;;;;;;;;16.71;47.91;100694.31;5024344;28;19913;-44
2021/12/25 02:33:34;;;;;;;;;;;;;;;16.69;47.84;100707.91;5023687;28;19924;-46
2021/12/25 02:35:59;;;;;;;;;;;;;;;16.69;47.81;100704.34;5023997;28;19913;-46
2021/12/25 02:38:25;;;;;;;;;;;;;;;16.67;47.80;100707.19;5024286;28;19957;-44
2021/12/25 02:40:50;;;;;;;;;;;;;;;16.66;47.74;100710.91;5024051;28;19925;-47
2021/12/25 02:43:16;;;;;;;;;;;;;;;16.66;47.72;100712.75;5024057;28;19918;-46
2021/12/25 02:45:41;;;;;;;;;;;;;;;16.64;47.88;100718.25;5024023;28;19918;-46
2021/12/25 02:48:08;;;;;;;;;;;;;;;16.62;47.85;100714.06;5023666;28;19926;-46
2021/12/25 02:50:33;;;;;;;;;;;;;;;16.61;47.78;100721.28;5027413;28;19913;-47
2021/12/25 02:52:59;;;;;;;;;;;;;;;16.60;47.72;100716.88;5043813;28;20651;-46
2021/12/25 02:55:25;;;;;;;;;;;;;;;16.58;47.75;100726.13;5043229;28;19924;-49
2021/12/25 02:57:52;;;;;;;;;;;;;;;16.58;47.77;100726.94;5043360;28;19917;-47
2021/12/25 03:00:18;;;;;;;;;;;;;;;16.40;47.89;100689.44;5043439;28;19925;-47
2021/12/25 03:02:43;;;;;;;;;;;;;;;16.57;47.84;100722.59;5042989;28;19917;-45
2021/12/25 03:05:08;;;;;;;;;;;;;;;16.56;47.75;100726.25;5043398;28;19924;-50
2021/12/25 03:07:34;;;;;;;;;;;;;;;16.56;47.71;100722.72;5043630;28;19917;-44
2021/12/25 03:09:59;;;;;;;;;;;;;;;16.54;47.67;100730.09;5043550;28;20351;-47
2021/12/25 03:12:33;;;;;;;;;;;;;;;16.53;47.70;100721.22;5043204;28;19917;-43
2021/12/25 03:15:12;;;;;;;;;;;;;;;16.50;47.79;100719.69;5043179;28;19913;-44
2021/12/25 03:17:38;;;;;;;;;;;;;;;16.50;47.72;100719.69;5042572;28;20395;-45
2021/12/25 03:20:04;;;;;;;;;;;;;;;16.50;47.69;100718.84;5043536;28;19984;-45
2021/12/25 03:22:29;;;;;;;;;;;;;;;16.48;47.64;100719.00;5043426;28;20036;-46
2021/12/25 03:24:54;;;;;;;;;;;;;;;16.48;47.74;100718.13;5042922;28;19917;-47
2021/12/25 03:27:19;;;;;;;;;;;;;;;16.48;47.78;100718.13;5042960;28;19913;-48
2021/12/25 03:29:45;;;;;;;;;;;;;;;16.45;47.73;100724.69;5043519;28;19913;-45
2021/12/25 03:32:10;;;;;;;;;;;;;;;16.45;47.74;100722.00;5042381;28;20420;-44
2021/12/25 03:34:35;;;;;;;;;;;;;;;16.44;47.68;100725.69;5043216;28;20307;-43
2021/12/25 03:37:01;;;;;;;;;;;;;;;16.42;47.61;100727.66;5043258;28;19988;-47
2021/12/25 03:39:26;;;;;;;;;;;;;;;16.40;47.63;100732.38;5043314;28;19913;-49
2021/12/25 03:41:52;;;;;;;;;;;;;;;16.39;47.55;100722.59;5042536;28;20019;-49
2021/12/25 03:44:17;;;;;;;;;;;;;;;16.39;47.67;100733.34;5042923;28;19913;-43
2021/12/25 03:46:42;;;;;;;;;;;;;;;16.37;47.57;100721.94;5042682;28;19917;-46
2021/12/25 03:49:14;;;;;;;;;;;;;;;16.37;47.54;100724.63;5042772;28;19913;-46
2021/12/25 04:00:04;;;;;;;;;;;;;;;16.33;47.64;100725.09;5042878;28;19996;-48
2021/12/25 04:02:35;;;;;;;;;;;;;;;16.32;47.67;100739.50;5042125;28;20421;-47
2021/12/25 04:05:02;;;;;;;;;;;;;;;16.31;47.56;100730.63;5042849;28;19913;-48
2021/12/25 04:10:27;;;;;;;;;;;;;;;16.30;47.54;100746.84;5024314;28;19913;-44
2021/12/25 04:12:52;;;;;;;;;;;;;;;16.29;47.39;100740.66;5046782;28;19977;-46
2021/12/25 04:15:17;;;;;;;;;;;;;;;16.28;47.51;100738.97;5046616;28;19917;-46
2021/12/25 04:17:42;;;;;;;;;;;;;;;16.27;47.45;100736.44;5045915;28;19928;-44
2021/12/25 04:20:08;;;;;;;;;;;;;;;16.26;47.46;100751.69;5046826;28;19913;-44
2021/12/25 04:22:43;;;;;;;;;;;;;;;16.25;47.46;100747.31;5046687;28;19921;-47
2021/12/25 04:25:09;;;;;;;;;;;;;;;16.24;47.52;100751.00;5053158;28;19953;-45
2021/12/25 04:27:34;;;;;;;;;;;;;;;16.24;47.40;100756.38;5046511;28;20578;-47
2021/12/25 04:30:15;;;;;;;;;;;;;;;16.22;47.61;100761.88;5046663;28;19913;-49
2021/12/25 04:33:24;;;;;;;;;;;;;;;16.21;47.52;100765.56;5045970;28;19913;-45
2021/12/25 04:49:44;;;;;;;;;;;;;;;16.16;47.40;100796.53;5045763;28;19919;-47
2021/12/25 05:03:13;;;;;;;;;;;;;;;16.10;47.36;100808.72;5045169;28;20000;-47
2021/12/25 05:05:39;;;;;;;;;;;;;;;16.10;47.48;100802.50;5045966;28;19913;-46
2021/12/25 05:08:05;;;;;;;;;;;;;;;16.08;47.48;100810.72;5045985;28;19917;-49
2021/12/25 05:10:30;;;;;;;;;;;;;;;16.07;47.50;100811.72;5046046;28;19932;-46
2021/12/25 05:12:55;;;;;;;;;;;;;;;16.07;47.50;100808.19;5044115;28;19920;-46
2021/12/25 05:15:20;;;;;;;;;;;;;;;16.07;47.52;100813.56;5045552;28;19956;-46
2021/12/25 05:17:45;;;;;;;;;;;;;;;16.07;47.31;100816.22;5044845;28;20407;-46
2021/12/25 05:20:11;;;;;;;;;;;;;;;16.06;47.39;100819.91;5045282;28;19960;-45
2021/12/25 05:22:36;;;;;;;;;;;;;;;16.06;47.44;100822.59;5035729;28;19936;-46
2021/12/25 05:25:01;;;;;;;;;;;;;;;16.06;47.49;100826.13;5025442;28;19921;-45
2021/12/25 05:27:26;;;;;;;;;;;;;;;16.05;47.30;100826.25;5025535;28;19921;-47
2021/12/25 05:29:51;;;;;;;;;;;;;;;16.06;47.40;100836.00;5025455;28;19921;-45
2021/12/25 05:32:18;;;;;;;;;;;;;;;16.04;47.27;100836.13;5024925;28;20374;-47
2021/12/25 05:34:43;;;;;;;;;;;;;;;16.04;47.46;100844.19;5044419;28;19924;-48
2021/12/25 05:37:09;;;;;;;;;;;;;;;16.02;47.47;100843.50;5044690;28;20357;-46
2021/12/25 05:39:34;;;;;;;;;;;;;;;16.02;47.42;100848.03;5045091;28;19913;-47
2021/12/25 05:41:59;;;;;;;;;;;;;;;16.02;47.71;100846.19;5045195;28;19919;-47
2021/12/25 05:44:25;;;;;;;;;;;;;;;16.04;47.63;100851.38;5044259;28;19917;-46
2021/12/25 05:46:50;;;;;;;;;;;;;;;16.02;47.54;100843.50;5044192;28;19959;-44
2021/12/25 05:49:15;;;;;;;;;;;;;;;16.02;47.50;100861.44;5043535;28;19956;-46
2021/12/25 05:51:40;;;;;;;;;;;;;;;16.01;47.62;100871.28;5044232;28;19917;-47
2021/12/25 05:54:05;;;;;;;;;;;;;;;16.01;47.69;100863.25;5044397;28;19959;-48
2021/12/25 05:56:31;;;;;;;;;;;;;;;15.98;47.75;100864.41;5043987;28;19920;-47
2021/12/25 05:58:56;;;;;;;;;;;;;;;15.98;47.65;100868.94;5044044;28;19917;-47
2021/12/25 06:01:21;;;;;;;;;;;;;;;15.97;47.62;100872.59;5044117;28;19920;-48
2021/12/25 06:03:46;;;;;;;;;;;;;;;15.96;47.70;100869.06;5043218;28;20231;-46
2021/12/25 06:06:11;;;;;;;;;;;;;;;15.96;47.78;100874.44;5044163;28;19944;-48
2021/12/25 06:08:37;;;;;;;;;;;;;;;15.95;47.82;100879.97;5043750;28;19955;-44
2021/12/25 06:11:05;;;;;;;;;;;;;;;15.95;47.75;100880.78;5042814;28;19920;-45
2021/12/25 06:13:30;;;;;;;;;;;;;;;15.95;47.84;100885.31;5037397;28;19975;-55
2021/12/25 06:15:56;;;;;;;;;;;;;;;15.93;47.87;100880.13;5034853;28;19921;-46
2021/12/25 06:18:21;;;;;;;;;;;;;;;15.92;48.01;100881.09;5034751;28;19988;-48
2021/12/25 06:20:46;;;;;;;;;;;;;;;15.92;48.05;100889.13;5035497;28;19917;-49
2021/12/25 06:23:11;;;;;;;;;;;;;;;15.92;48.16;100894.50;5038937;28;19921;-47
2021/12/25 06:25:37;;;;;;;;;;;;;;;15.93;48.17;100898.88;5043137;28;19917;-44
2021/12/25 06:28:02;;;;;;;;;;;;;;;15.94;48.09;100899.72;5043649;28;19913;-46
2021/12/25 06:30:27;;;;;;;;;;;;;;;15.94;48.20;100903.25;5043887;28;19917;-47
2021/12/25 06:32:52;;;;;;;;;;;;;;;15.94;48.08;100903.25;5043359;28;19943;-48
2021/12/25 06:35:17;;;;;;;;;;;;;;;15.94;48.10;100895.19;5044157;28;19936;-50
2021/12/25 06:37:45;;;;;;;;;;;;;;;15.93;48.13;100888.16;5044065;28;19919;-44
2021/12/25 06:40:12;;;;;;;;;;;;;;;15.93;48.25;100901.56;5044223;28;19917;-43
2021/12/25 06:42:37;;;;;;;;;;;;;;;15.94;48.41;100902.41;5043808;28;20616;-47
2021/12/25 06:45:03;;;;;;;;;;;;;;;15.94;48.45;100902.41;5043847;28;19913;-46
2021/12/25 06:47:28;;;;;;;;;;;;;;;15.95;48.39;100912.13;5043257;28;19988;-47
2021/12/25 06:49:54;;;;;;;;;;;;;;;15.95;48.61;100904.09;5043600;28;19921;-44
2021/12/25 06:52:19;;;;;;;;;;;;;;;15.95;48.64;100902.25;5043710;28;20000;-50
2021/12/25 06:54:44;;;;;;;;;;;;;;;15.95;48.72;100904.09;5043394;28;20016;-46
2021/12/25 06:57:10;;;;;;;;;;;;;;;15.95;48.65;100907.63;5043649;28;19917;-43
2021/12/25 06:59:35;;;;;;;;;;;;;;;15.95;48.65;100904.94;5043656;28;20274;-48
2021/12/25 07:02:00;;;;;;;;;;;;;;;15.96;48.64;100921.84;5043294;28;19913;-46
2021/12/25 07:04:25;;;;;;;;;;;;;;;15.95;48.71;100912.97;5043012;28;19956;-49
2021/12/25 07:06:50;;;;;;;;;;;;;;;15.94;48.67;100913.13;5043401;28;19917;-45
2021/12/25 07:09:15;;;;;;;;;;;;;;;15.94;48.67;100924.69;5043478;28;20000;-46
2021/12/25 07:11:42;;;;;;;;;;;;;;;15.93;48.80;100923.03;5042092;28;19935;-47
2021/12/25 07:14:09;;;;;;;;;;;;;;;15.93;48.65;100922.19;5041925;28;19913;-47
2021/12/25 07:16:34;;;;;;;;;;;;;;;15.94;48.82;100923.84;5029758;28;19932;-47
2021/12/25 07:18:59;;;;;;;;;;;;;;;15.94;48.86;100923.84;5039266;28;19945;-48
2021/12/25 07:21:25;;;;;;;;;;;;;;;15.95;48.82;100928.22;5039849;28;19913;-42
2021/12/25 07:23:50;;;;;;;;;;;;;;;15.97;48.84;100927.09;5038518;28;19925;-47
2021/12/25 07:26:19;;;;;;;;;;;;;;;16.02;48.63;100928.47;5037368;28;20346;-47
2021/12/25 07:28:47;;;;;;;;;;;;;;;16.06;48.54;100935.25;5037645;28;19917;-48
2021/12/25 07:31:12;;;;;;;;;;;;;;;16.12;48.41;100942.69;5035861;28;19979;-47
2021/12/25 07:33:40;;;;;;;;;;;;;;;16.14;48.29;100938.88;5024185;28;20290;-48
2021/12/25 07:36:05;;;;;;;;;;;;;;;16.17;48.23;100940.38;5023302;28;19918;-51
2021/12/25 07:38:30;;;;;;;;;;;;;;;16.20;48.08;100940.09;5023128;28;19914;-47
2021/12/25 07:40:55;;;;;;;;;;;;;;;16.21;47.81;100936.41;5023407;28;19985;-48
2021/12/25 07:43:21;;;;;;;;;;;;;;;16.23;47.75;100939.81;5023035;28;19979;-49
2021/12/25 07:45:47;;;;;;;;;;;;;;;16.24;47.69;100947.69;5023020;28;19913;-48
2021/12/25 07:48:13;;;;;;;;;;;;;;;16.24;47.65;100947.69;5022499;28;20298;-47
2021/12/25 07:50:40;;;;;;;;;;;;;;;16.24;47.47;100947.69;5040871;28;19921;-50
2021/12/25 07:53:05;;;;;;;;;;;;;;;16.25;47.53;100953.91;5043219;28;19917;-47
2021/12/25 07:55:32;;;;;;;;;;;;;;;16.25;47.40;100957.41;5042541;28;19936;-49
2021/12/25 07:57:57;;;;;;;;;;;;;;;16.26;47.31;100958.25;5042040;28;19917;-48
2021/12/25 08:00:23;;;;;;;;;;;;;;;16.25;47.26;100954.72;5041986;28;19956;-49
2021/12/25 08:02:48;;;;;;;;;;;;;;;16.26;47.11;100958.25;5041449;28;19921;-49
2021/12/25 08:05:13;;;;;;;;;;;;;;;16.27;47.03;100959.97;5041964;28;20234;-44
2021/12/25 08:07:38;;;;;;;;;;;;;;;16.29;46.95;100968.69;5042562;28;19917;-47
2021/12/25 08:10:14;;;;;;;;;;;;;;;16.31;46.94;100961.34;5042326;28;19921;-47
2021/12/25 08:12:40;;;;;;;;;;;;;;;16.32;46.94;100971.09;5042736;28;19935;-47
2021/12/25 08:15:05;;;;;;;;;;;;;;;16.33;46.94;100969.25;5042587;28;19921;-46
2021/12/25 08:17:30;;;;;;;;;;;;;;;16.35;46.79;100973.44;5041028;28;19929;-46
2021/12/25 08:19:55;;;;;;;;;;;;;;;16.36;46.68;100966.28;5041959;28;19921;-46
2021/12/25 08:22:20;;;;;;;;;;;;;;;16.37;46.71;100966.09;5042621;28;19971;-46
2021/12/25 08:24:46;;;;;;;;;;;;;;;16.38;46.73;100964.25;5042036;28;19920;-47
2021/12/25 08:27:11;;;;;;;;;;;;;;;16.39;46.54;100961.41;5042394;28;19976;-48
2021/12/25 08:29:37;;;;;;;;;;;;;;;16.39;46.61;100972.16;5042655;28;20338;-48
2021/12/25 08:32:03;;;;;;;;;;;;;;;16.40;46.51;100973.88;5042459;28;19913;-48
2021/12/25 08:34:28;;;;;;;;;;;;;;;16.41;46.49;100972.88;5041785;28;19913;-49
2021/12/25 08:36:53;;;;;;;;;;;;;;;16.44;46.33;100983.31;5042250;28;19920;-44
2021/12/25 08:39:18;;;;;;;;;;;;;;;16.45;46.27;100986.84;5042539;28;19914;-47
2021/12/25 08:41:44;;;;;;;;;;;;;;;16.46;46.20;100991.19;5042222;28;19924;-49
2021/12/25 08:44:30;;;;;;;;;;;;;;;16.49;46.16;100989.06;5042214;28;19917;-45
2021/12/25 08:46:56;;;;;;;;;;;;;;;16.61;45.84;101000.44;5042071;28;19917;-46
2021/12/25 08:49:24;;;;;;;;;;;;;;;16.80;45.52;101002.16;5041803;28;19920;-46
2021/12/25 08:51:49;;;;;;;;;;;;;;;16.98;45.03;100994.94;5041256;28;19945;-46
2021/12/25 08:54:14;;;;;;;;;;;;;;;17.19;44.62;101001.84;5043065;28;20392;-47
2021/12/25 08:56:39;;;;;;;;;;;;;;;17.39;44.29;101013.28;5045826;28;19913;-50
2021/12/25 08:59:05;;;;;;;;;;;;;;;17.54;43.80;101006.31;5046093;28;19920;-49
2021/12/25 09:01:30;;;;;;;;;;;;;;;17.60;43.56;101010.25;5045847;28;19924;-46
2021/12/25 09:03:56;;;;;;;;;;;;;;;17.54;43.43;101013.53;5045540;28;20293;-50
2021/12/25 09:06:21;;;;;;;;;;;;;;;17.45;43.47;101018.00;5045914;28;20003;-48
2021/12/25 09:08:47;;;;;;;;;;;;;;;17.36;43.59;101008.19;5033493;28;19948;-49
2021/12/25 09:11:12;;;;;;;;;;;;;;;17.26;43.73;101016.38;5045782;28;19920;-51
2021/12/25 09:13:37;;;;;;;;;;;;;;;17.19;43.64;101034.09;5045541;28;19920;-49
2021/12/25 09:16:03;;;;;;;;;;;;;;;17.12;43.75;101027.63;5045355;28;19921;-48
2021/12/25 09:18:28;;;;;;;;;;;;;;;17.06;43.84;101025.56;5044664;28;19913;-47
2021/12/25 09:20:53;;;;;;;;;;;;;;;17.02;43.99;101034.94;5045449;28;20567;-50
2021/12/25 09:23:18;;;;;;;;;;;;;;;16.97;43.90;101038.94;5045653;28;19917;-47
2021/12/25 09:25:43;;;;;;;;;;;;;;;16.93;43.87;101029.47;5045105;28;19917;-50
2021/12/25 09:28:08;;;;;;;;;;;;;;;16.91;43.94;101038.72;5045244;28;19917;-47
2021/12/25 09:30:36;;;;;;;;;;;;;;;16.89;43.91;101038.00;5045231;28;20001;-46
2021/12/25 09:33:01;;;;;;;;;;;;;;;16.85;43.98;101040.13;5044744;28;19909;-46
2021/12/25 09:35:26;;;;;;;;;;;;;;;16.84;44.01;101045.66;5045148;28;19933;-47
2021/12/25 09:37:51;;;;;;;;;;;;;;;16.81;43.92;101040.59;5044913;28;19917;-45
2021/12/25 09:40:16;;;;;;;;;;;;;;;16.78;43.94;101043.56;5045168;28;19921;-47
2021/12/25 09:42:43;;;;;;;;;;;;;;;16.74;43.97;101035.00;5044876;28;19923;-46
2021/12/25 09:45:09;;;;;;;;;;;;;;;16.72;44.07;101045.88;5045066;28;19996;-46
2021/12/25 09:47:35;;;;;;;;;;;;;;;16.70;44.04;101049.69;5044157;28;19940;-46
2021/12/25 09:50:00;;;;;;;;;;;;;;;16.68;44.18;101054.34;5044933;28;19925;-46
2021/12/25 09:52:25;;;;;;;;;;;;;;;16.66;44.07;101057.19;5044811;28;20000;-44
2021/12/25 09:54:50;;;;;;;;;;;;;;;16.64;44.13;101059.16;5044764;28;20796;-45
2021/12/25 09:57:15;;;;;;;;;;;;;;;16.64;44.07;101059.16;5044652;28;19920;-46
2021/12/25 09:59:41;;;;;;;;;;;;;;;16.63;44.13;101059.34;5044809;28;19959;-47
2021/12/25 10:02:09;;;;;;;;;;;;;;;16.62;44.16;101060.34;5044278;28;19924;-48
2021/12/25 10:04:34;;;;;;;;;;;;;;;16.51;44.19;101045.25;5044270;28;20006;-48
2021/12/25 10:07:12;;;;;;;;;;;;;;;16.61;44.18;101067.53;5044475;28;19913;-44
2021/12/25 10:09:37;;;;;;;;;;;;;;;16.62;44.16;101073.75;5044719;28;19913;-49
2021/12/25 10:12:03;;;;;;;;;;;;;;;16.61;43.96;101072.03;5044435;28;19980;-43
2021/12/25 10:14:28;;;;;;;;;;;;;;;16.62;43.96;101076.44;5044416;28;19920;-44
2021/12/25 10:16:53;;;;;;;;;;;;;;;16.62;44.08;101071.91;5043705;28;19928;-47
2021/12/25 10:19:19;;;;;;;;;;;;;;;16.62;44.10;101063.03;5043643;28;19924;-45
2021/12/25 10:21:44;;;;;;;;;;;;;;;16.60;43.98;101063.16;5041856;28;19932;-46
2021/12/25 10:24:24;;;;;;;;;;;;;;;16.62;43.93;101068.38;5024493;28;19924;-49
2021/12/25 10:26:49;;;;;;;;;;;;;;;16.62;43.97;101068.38;5027935;28;19952;-47
2021/12/25 10:29:18;;;;;;;;;;;;;;;16.62;43.87;101071.06;5044308;28;19924;-46
2021/12/25 10:31:44;;;;;;;;;;;;;;;16.61;43.97;101075.59;5044143;28;19914;-45
2021/12/25 10:34:16;;;;;;;;;;;;;;;16.61;43.77;101064.88;5043497;28;20573;-48
2021/12/25 10:36:41;;;;;;;;;;;;;;;16.59;43.91;101058.78;5044059;28;19913;-43
2021/12/25 10:39:08;;;;;;;;;;;;;;;16.59;43.88;101060.63;5043899;28;19919;-48
2021/12/25 10:41:35;;;;;;;;;;;;;;;16.59;43.73;101060.63;5043918;28;19928;-50
2021/12/25 10:44:14;;;;;;;;;;;;;;;16.58;43.99;101056.25;5043744;28;19921;-44
2021/12/25 10:46:47;;;;;;;;;;;;;;;16.58;43.72;101045.53;5043712;28;19990;-47
2021/12/25 10:49:12;;;;;;;;;;;;;;;16.57;43.87;101049.22;5043103;28;19913;-47
2021/12/25 10:51:37;;;;;;;;;;;;;;;16.56;43.87;101051.03;5043912;28;19924;-50
2021/12/25 10:54:03;;;;;;;;;;;;;;;16.57;43.87;101043.84;5043735;28;19963;-45
2021/12/25 10:56:36;;;;;;;;;;;;;;;16.57;43.78;101043.84;5043760;28;19980;-46
2021/12/25 10:59:08;;;;;;;;;;;;;;;16.58;43.76;101041.00;5043721;28;19913;-45
2021/12/25 11:01:38;;;;;;;;;;;;;;;16.59;43.76;101045.34;5043553;28;19913;-45
2021/12/25 11:04:04;;;;;;;;;;;;;;;16.58;43.65;101041.00;5042941;28;19925;-46
2021/12/25 11:06:29;;;;;;;;;;;;;;;16.60;43.67;101046.19;5043898;28;19917;-47
2021/12/25 11:08:54;;;;;;;;;;;;;;;16.60;43.76;101048.88;5043551;28;19971;-45
2021/12/25 11:11:20;;;;;;;;;;;;;;;16.60;43.71;101038.16;5042202;28;19913;-48
2021/12/25 11:13:52;;;;;;;;;;;;;;;16.61;43.61;101035.34;5043095;28;20374;-48
2021/12/25 11:16:22;;;;;;;;;;;;;;;16.60;43.74;101039.00;5043403;28;20405;-47
2021/12/25 11:19:17;;;;;;;;;;;;;;;16.63;43.55;101040.53;5028175;28;19917;-48
2021/12/25 11:21:54;;;;;;;;;;;;;;;16.62;43.50;101038.84;5043578;28;20332;-45
2021/12/25 11:24:21;;;;;;;;;;;;;;;16.64;43.45;101034.16;5043144;28;19924;-48
2021/12/25 11:26:47;;;;;;;;;;;;;;;16.65;43.60;101035.84;5042883;28;19920;-49
2021/12/25 11:29:13;;;;;;;;;;;;;;;16.64;43.35;101026.97;5043194;28;19920;-47
2021/12/25 11:31:39;;;;;;;;;;;;;;;16.66;43.34;101024.97;5043003;28;19984;-46
2021/12/25 11:34:04;;;;;;;;;;;;;;;16.57;43.38;101000.91;5042483;28;20410;-48
2021/12/25 11:36:30;;;;;;;;;;;;;;;16.67;43.35;101023.97;5043324;28;19949;-46
2021/12/25 11:38:55;;;;;;;;;;;;;;;16.69;43.42;101021.13;5043130;28;19967;-48
2021/12/25 11:41:24;;;;;;;;;;;;;;;16.69;43.23;101022.00;5043417;28;19914;-48
2021/12/25 11:43:51;;;;;;;;;;;;;;;16.71;43.18;101027.22;5042835;28;19924;-48
2021/12/25 11:46:16;;;;;;;;;;;;;;;16.71;43.32;101027.22;5043068;28;19924;-46
2021/12/25 11:48:41;;;;;;;;;;;;;;;16.72;43.15;101024.41;5042063;28;20348;-46
2021/12/25 11:51:07;;;;;;;;;;;;;;;16.74;43.36;101029.63;5043257;28;19920;-48
2021/12/25 11:56:40;;;;;;;;;;;;;;;16.75;43.23;101023.25;5042988;28;19922;-47
2021/12/25 11:59:10;;;;;;;;;;;;;;;16.78;43.09;101030.16;5042857;28;19939;-51
2021/12/25 12:01:42;;;;;;;;;;;;;;;16.78;43.13;101016.72;5042505;28;19963;-50
2021/12/25 12:04:10;;;;;;;;;;;;;;;16.79;43.25;101018.44;5042076;28;19917;-45
2021/12/25 12:06:44;;;;;;;;;;;;;;;16.80;43.07;101030.84;5042654;28;19928;-46
2021/12/25 12:09:25;;;;;;;;;;;;;;;16.81;43.21;101021.81;5042939;28;19920;-49
2021/12/25 12:11:52;;;;;;;;;;;;;;;16.81;43.00;101011.06;5042665;28;19917;-49
2021/12/25 12:14:17;;;;;;;;;;;;;;;16.82;43.03;101021.66;5041065;28;19929;-48
2021/12/25 12:16:48;;;;;;;;;;;;;;;16.83;43.02;101020.66;5042069;28;20078;-48
2021/12/25 12:19:36;;;;;;;;;;;;;;;16.84;43.16;101016.97;5041785;28;20019;-48
2021/12/25 12:23:00;;;;;;;;;;;;;;;16.85;43.12;101021.34;5041433;28;20561;-46
2021/12/25 12:27:47;;;;;;;;;;;;;;;16.88;43.09;101018.38;5042532;28;19924;-51
2021/12/25 12:30:30;;;;;;;;;;;;;;;16.88;42.96;101009.47;5045091;28;19913;-46
2021/12/25 12:32:55;;;;;;;;;;;;;;;16.90;43.20;101010.13;5045857;28;19941;-45
2021/12/25 12:35:34;;;;;;;;;;;;;;;16.90;42.95;101005.59;5046391;28;20436;-45
2021/12/25 12:38:18;;;;;;;;;;;;;;;16.90;42.88;101016.34;5046554;28;20401;-46
2021/12/25 12:40:43;;;;;;;;;;;;;;;16.91;42.95;101020.75;5046679;28;19928;-49
2021/12/25 12:43:13;;;;;;;;;;;;;;;16.92;42.99;101008.16;5046142;28;19917;-44
2021/12/25 12:45:38;;;;;;;;;;;;;;;16.93;42.85;101005.31;5046413;28;19913;-48
2021/12/25 12:48:06;;;;;;;;;;;;;;;16.95;43.06;101005.19;5045597;28;20062;-48
2021/12/25 12:50:32;;;;;;;;;;;;;;;16.82;43.03;100981.38;5045982;28;19921;-48
2021/12/25 12:53:01;;;;;;;;;;;;;;;16.96;42.88;101013.06;5046373;28;19925;-48
2021/12/25 12:55:27;;;;;;;;;;;;;;;16.97;42.96;101006.69;5045601;28;20517;-47
2021/12/25 12:58:09;;;;;;;;;;;;;;;16.96;42.82;101007.69;5045909;28;20011;-48
2021/12/25 13:00:34;;;;;;;;;;;;;;;16.99;43.01;101014.59;5045824;28;19913;-48
2021/12/25 13:02:59;;;;;;;;;;;;;;;16.99;42.90;101014.59;5045193;28;19917;-47
2021/12/25 13:05:31;;;;;;;;;;;;;;;16.99;42.80;101023.53;5045887;28;19923;-46
2021/12/25 13:07:57;;;;;;;;;;;;;;;17.01;42.69;101025.19;5046061;28;19920;-47
2021/12/25 13:10:38;;;;;;;;;;;;;;;17.00;42.72;101024.34;5046096;28;19975;-50
2021/12/25 13:13:13;;;;;;;;;;;;;;;17.01;42.73;101036.78;5045690;28;20022;-45
2021/12/25 13:15:40;;;;;;;;;;;;;;;17.01;42.67;101030.56;5045453;28;19919;-46
2021/12/25 13:18:05;;;;;;;;;;;;;;;16.99;42.57;101028.88;5044573;28;19924;-45
2021/12/25 13:20:41;;;;;;;;;;;;;;;17.00;42.73;101032.41;5045592;28;19917;-49
2021/12/25 13:23:08;;;;;;;;;;;;;;;16.99;42.80;101041.44;5031734;28;19918;-46
2021/12/25 13:25:33;;;;;;;;;;;;;;;16.98;42.70;101035.22;5025368;28;19920;-49
2021/12/25 13:28:00;;;;;;;;;;;;;;;16.98;42.64;101034.41;5025543;28;19914;-46
2021/12/25 13:30:26;;;;;;;;;;;;;;;16.97;42.75;101046.16;5025708;28;20011;-48
2021/12/25 13:32:51;;;;;;;;;;;;;;;16.96;42.70;101048.00;5024886;28;19914;-49
2021/12/25 13:35:22;;;;;;;;;;;;;;;16.95;42.65;101057.06;5025513;28;19913;-46
2021/12/25 13:37:55;;;;;;;;;;;;;;;16.94;42.65;101049.97;5025500;28;19953;-49
2021/12/25 13:40:20;;;;;;;;;;;;;;;16.94;42.60;101047.28;5025014;28;19960;-48
2021/12/25 13:42:46;;;;;;;;;;;;;;;16.93;42.71;101042.91;5025119;28;19933;-48
2021/12/25 13:45:11;;;;;;;;;;;;;;;16.94;42.67;101051.81;5024990;28;19917;-47
2021/12/25 13:47:39;;;;;;;;;;;;;;;16.94;42.66;101047.28;5024526;28;19920;-49